Kezdőlap
METAR-TAF:

METAR-TAF

Repülőterek :

Kulusuk, Grönland

földrajzi szélesség: 65-35N, földrajzi hosszúság: 037-09W, magasság: 35 m

Jelenlegi meteorológiai megfigyelések

A jelentés 1 órával és 3 perccel ezelõtt készült, 10:50 UTC
Kelet-északkeleti szél 17 kt széllökések: 30 kt, északi és keleti között változik
Hőmérséklet 2°C
Páratartalom 80%
Légköri nyomás 1000 hPa
Látótávolság 10 km, vagy több
enyhe havazás,

METAR: BGKK 051050Z AUTO 07017G30KT 010V100 9999NDV -SN OVC013/// 02/M01 Q1000

Idő: 08:53 (11:53 UTC)

Előrejelzés

A jelentés 18 órával és 51 perccel ezelõtt készült, 17:02 UTC
Az előrejelzés 04-én 17 óra UTC és 04-én 19 óra UTC között érvényes
Különbözõ irányokból fújó szél 6 kt
Látótávolság: 0700 m
600 lábon
04-én 17 óra UTC és 04-én 19 óra UTC között ideiglenes
Látótávolság: 8000 m
Szakadozott felhőzet 2000 lábon
enyhe havazás,

TAF: BGKK 041702Z 0417/0419 VRB06KT 0700 SN VV006 TEMPO 0417/0419 8000 -SN BKN020

Meteorológiai megfigyelések és előrejelzések több, mint 4000 repülőtéren (METAR és TAF jelentéseket).

A térképen piros és sárga pontok jelzik az elérhető meteorológiai állomásokat.

Mozgassa az egeret a pont fölött, hogy megjelenjen az állomás neve.

Azután kattintson az időjárási megfigyelések és előrejelzések megtekintéséhez.

A térkép megváltoztatása: kattintson a fekete keresztel jelölt zöld gombra ráközelítéshez, a vonallal jelölt zöld gombra távolításhoz, vagy a zöld nyilakra a szomszédos térképek eléréséhez.


METAR-TAF: